Flight Track Log - Related Links

Times and Time Zones

All times are in EDT time to prevent confusion due to time zone crossing. See the UJC25 flight status page for this flight to view local times or setup timezone preferences in your user account.

Time Position Orientation Groundspeed Altitude Reporting Facility
EDT Latitude Longitude Course Direction KTS MPH feet Rate Location/Type
Sat 06:49:57 PM 37.2217 -92.3594 66° East 416 479 31,000  Level Kansas City Center
Sat 06:50:58 PM 37.2656 -92.2356 66° East 400 460 31,000  Level Kansas City Center
Sat 06:52:00 PM 37.3186 -92.1194 60° Northeast 390 449 31,000  Level Kansas City Center
Sat 06:53:02 PM 37.3725 -92.0000 60° Northeast 389 448 31,000  Level Kansas City Center
Sat 06:54:03 PM 37.4086 -91.8803 69° East 373 429 31,000  Level Kansas City Center
Sat 06:55:05 PM 37.4442 -91.7589 70° East 370 426 31,000  Level Kansas City Center
Sat 06:56:07 PM 37.4856 -91.6097 71° East 376 433 31,000  Level Kansas City Center
Sat 06:57:08 PM 37.5153 -91.4839 73° East 376 433 31,000  Level Kansas City Center
Sat 06:58:10 PM 37.5350 -91.3572 79° East 371 427 31,000  Level Kansas City Center
Sat 06:59:11 PM 37.5531 -91.2297 80° East 371 427 31,000  Level Kansas City Center
Sat 07:00:13 PM 37.5894 -91.1058 70° East 374 430 31,000  Level Kansas City Center
Sat 07:01:15 PM 37.6289 -90.9694 70° East 378 435 31,000  Level Kansas City Center
Sat 07:02:17 PM 37.6642 -90.8458 70° East 376 433 31,000  Level Kansas City Center
Sat 07:03:18 PM 37.6992 -90.7217 70° East 377 434 31,000  Level Kansas City Center
Sat 07:04:20 PM 37.7361 -90.5944 70° East 384 442 31,000  Level Kansas City Center
Sat 07:05:22 PM 37.7728 -90.4644 70° East 391 450 31,000  Level Kansas City Center
Sat 07:06:23 PM 37.8097 -90.3322 70° East 396 456 31,000  Level Kansas City Center
Sat 07:07:25 PM 37.8539 -90.1711 71° East 402 463 31,000  Level Kansas City Center
Sat 07:08:27 PM 37.8919 -90.0347 70° East 398 458 31,000  Level Kansas City Center
Sat 07:09:28 PM 37.9278 -89.9075 70° East 390 449 31,000  Level Kansas City Center
Sat 07:10:30 PM 37.9661 -89.7692 71° East 388 447 31,000  Level Kansas City Center
Sat 07:11:32 PM 38.0011 -89.6433 71° East 382 440 31,000  Level Kansas City Center
Sat 07:12:33 PM 38.0358 -89.5164 71° East 383 441 31,000  Level Kansas City Center
Sat 07:13:35 PM 38.0739 -89.3761 71° East 390 449 31,000  Level Kansas City Center
Sat 07:14:36 PM 38.1092 -89.2442 71° East 395 455 31,000  Level Kansas City Center
Sat 07:15:38 PM 38.1453 -89.1111 71° East 398 458 31,000  Level Kansas City Center
Sat 07:16:40 PM 38.1778 -88.9839 72° East 392 451 31,000  Level Kansas City Center
Sat 07:17:41 PM 38.2128 -88.8539 71° East 389 448 31,000  Level Kansas City Center
Sat 07:18:43 PM 38.2464 -88.7231 72° East 391 450 31,000  Level Kansas City Center
Sat 07:19:44 PM 38.2861 -88.5753 71° East 385 443 31,000  Level Kansas City Center
Sat 07:20:46 PM 38.3217 -88.4417 71° East 392 451 31,000  Level Kansas City Center
Sat 07:21:48 PM 38.3569 -88.3078 71° East 396 456 31,000  Level Kansas City Center
Sat 07:22:49 PM 38.3781 -88.1706 79° East 394 453 31,000 -397 Level Kansas City Center
Sat 07:23:49 PM 38.3906 -88.0306 83° East 396 456 30,200 -1,091 Descending Indianapolis Center
Sat 07:24:50 PM 38.4031 -87.8933 83° East 390 449 28,800 -1,366 Descending Indianapolis Center
Sat 07:25:52 PM 38.4158 -87.7483 84° East 405 466 27,400 -1,366 Descending Indianapolis Center
Sat 07:26:53 PM 38.4292 -87.6042 83° East 407 468 26,000 -1,415 Descending Indianapolis Center
Sat 07:27:55 PM 38.4414 -87.4622 84° East 402 463 24,500 -1,512 Descending Indianapolis Center
Sat 07:28:56 PM 38.4556 -87.3125 83° East 416 479 22,900 -1,279 Descending Indianapolis Center
Sat 07:29:57 PM 38.4681 -87.1653 84° East 412 474 21,900 -889 Descending Indianapolis Center
Sat 07:31:11 PM 38.4808 -87.0153 84° East 414 476 20,900 -933 Descending Indianapolis Center
Sat 07:32:12 PM 38.4956 -86.8364 84° East 415 478 19,800 -934 Descending Indianapolis Center
Sat 07:33:13 PM 38.5078 -86.6936 84° East 403 464 19,000 -390 Descending Indianapolis Center
Sat 07:34:15 PM 38.5197 -86.5458 84° East 412 474 19,000  Level Indianapolis Center
Sat 07:35:16 PM 38.5408 -86.3719 81° East 414 476 19,000 -885 Level Indianapolis Center
Sat 07:36:17 PM 38.5764 -86.2522 69° East 363 418 17,200 -1,756 Descending Indianapolis Center
Sat 07:37:19 PM 38.6106 -86.1394 69° East 341 392 15,400 -1,659 Descending Indianapolis Center
Sat 07:38:20 PM 38.6444 -86.0256 69° East 342 394 13,800 -1,623 Descending Indianapolis Center
Sat 07:39:21 PM 38.6767 -85.9183 69° East 326 375 12,100 -885 Descending Indianapolis Center
Sat 07:40:22 PM 38.7042 -85.8225 70° East 320 368 12,000 -49 Descending Indianapolis Center
Sat 07:41:24 PM 38.7444 -85.6819 70° East 353 406 12,000  Level Indianapolis Center
Sat 07:42:25 PM 38.7811 -85.5583 69° East 369 425 12,000  Level Indianapolis Center
Sat 07:43:26 PM 38.8153 -85.4358 70° East 367 422 12,000 -98 Level Indianapolis Center
Sat 07:44:27 PM 38.8503 -85.3186 69° East 356 410 11,800 -829 Descending Indianapolis Center
Sat 07:45:29 PM 38.8786 -85.2175 70° East 310 357 10,300 -878 Descending Indianapolis Center
Sat 07:46:30 PM 38.9078 -85.1158 70° East 303 349 10,000 -148 Descending Indianapolis Center
Sat 07:47:31 PM 38.9364 -85.0131 70° East 307 353 10,000 -443 Level Indianapolis Center
Sat 07:48:32 PM 38.9606 -84.9142 73° East 293 337 9,100 -1,347 Descending Indianapolis Center
Sat 07:49:09 PM 38.9833 -84.8333 70° East 298 343 7,800 -1,299 Descending Cincinnati TRACON
Sat 07:50:09 PM 39.0000 -84.7333 78° East 287 330 7,000 -400 Descending Cincinnati TRACON
Sat 07:51:09 PM 39.0167 -84.6333 78° East 291 335 7,000  Level Cincinnati TRACON
Sat 07:52:03 PM 39.0500 -84.5500 63° Northeast 251 289 7,000 -205 Level Cincinnati TRACON
Sat 07:52:37 PM 39.0481 -84.5131 94° East 254 292 6,700 -821 Descending Indianapolis Center
Sat 07:53:38 PM 39.0528 -84.4494 85° East 175 201 5,700 -1,525 Descending Indianapolis Center
Sat 07:54:39 PM 39.0633 -84.3917 77° East 164 189 3,600 -1,377 Descending Indianapolis Center
Sat 07:55:40 PM 39.1078 -84.3547 33° Northeast 162 186 2,900 -689 Descending Indianapolis Center
Sat 07:58:00 PM 39.1000 -84.4167 218° Southwest  Level FlightAware Approximate

Login

Don't have an account? Register now (free) for customized features, flight alerts, and more!